This is the latest recevied weather packets stored in our database for station/object KE2LU. If no packets are shown the sender has not sent any weather packets the latest 10 day(s).
| Time | Temp. | Humidity | Pressure | Rain* | Wind** | Luminosity | Snow |
|---|---|---|---|---|---|---|---|
| 1777639803 | 8.33° C | 65% | 1014.1 hPa | 0 mm | - | - | - |
| 1777638302 | 7.78° C | 72% | 1014.3 hPa | 0 mm | - | - | - |
| 1777637402 | 7.22° C | 78% | 1014.2 hPa | 0 mm | - | - | - |
| 1777637101 | 6.67° C | 78% | 1014.3 hPa | 0 mm | - | - | - |
| 1777636802 | 6.67° C | 79% | 1014.4 hPa | 0 mm | - | - | - |
| 1777634102 | 5° C | 96% | 1014 hPa | 0 mm | - | - | - |
| 1777631702 | 2.22° C | 96% | 1013.8 hPa | 0 mm | - | - | - |
| 1777631402 | 2.22° C | 96% | 1013.9 hPa | 0 mm | - | - | - |
| 1777625701 | 1.67° C | 96% | 1013.6 hPa | 0 mm | - | - | - |
| 1777624802 | 1.67° C | 96% | 1013.6 hPa | 0 mm | - | - | - |
| 1777621802 | 2.22° C | 95% | 1013.6 hPa | 0 mm | - | - | - |
| 1777620602 | 2.78° C | 95% | 1013.4 hPa | 0 mm | - | - | - |
| 1777617602 | 2.78° C | 95% | 1013.4 hPa | 0 mm | - | - | - |
| 1777614902 | 2.78° C | 93% | 1013.5 hPa | 0 mm | - | - | - |
| 1777611903 | 3.89° C | 92% | 1013.5 hPa | 0 mm | - | - | - |
| 1777610702 | 3.89° C | 92% | 1013.5 hPa | 0 mm | - | - | - |
| 1777609503 | 3.89° C | 91% | 1013.5 hPa | 0 mm | - | - | - |
| 1777607702 | 3.33° C | 91% | 1013.5 hPa | 0 mm | - | - | - |
| 1777604402 | 3.89° C | 87% | 1013.8 hPa | 0 mm | - | - | - |
| 1777603802 | 3.89° C | 87% | 1013.8 hPa | 0 mm | - | - | - |
| 1777602002 | 3.89° C | 85% | 1013.7 hPa | 0 mm | - | - | - |
| 1777601703 | 3.89° C | 85% | 1013.8 hPa | 0 mm | - | - | - |
| 1777598703 | 4.44° C | 82% | 1013.7 hPa | 0 mm | - | - | - |
| 1777598103 | 5° C | 81% | 1013.6 hPa | 0 mm | - | - | - |
| 1777597503 | 5.56° C | 80% | 1013.4 hPa | 0 mm | - | - | - |
* Rain latest hour (hover to see other rain measurements)
** Current wind speed in m/s (hover to see current wind gust speed)